createdAt,value
2023-02-28T00:02:49.485Z,20.02
2023-02-28T00:07:01.840Z,21.92
2023-02-28T00:11:16.103Z,16.40
2023-02-28T00:15:28.536Z,20.75
2023-02-28T00:19:40.882Z,16.88
2023-02-28T00:23:54.571Z,18.98
2023-02-28T00:28:07.037Z,25.27
2023-02-28T00:32:20.238Z,21.70
2023-02-28T00:36:32.632Z,18.88
2023-02-28T00:40:45.031Z,26.58
2023-02-28T00:44:57.479Z,18.40
2023-02-28T00:49:09.883Z,27.48
2023-02-28T00:53:23.273Z,22.88
2023-02-28T00:57:35.679Z,21.85
2023-02-28T01:01:49.751Z,31.73
2023-02-28T01:06:02.333Z,19.63
2023-02-28T01:10:14.806Z,23.23
2023-02-28T01:14:27.322Z,22.98
2023-02-28T01:18:40.655Z,26.10
2023-02-28T01:22:53.350Z,23.45
2023-02-28T01:27:05.808Z,26.05
2023-02-28T01:31:19.603Z,20.83
2023-02-28T01:35:35.256Z,27.42
2023-02-28T01:39:47.561Z,28.33
2023-02-28T01:44:06.503Z,30.17
2023-02-28T01:48:20.566Z,29.02
2023-02-28T01:52:34.153Z,29.08
2023-02-28T01:56:57.572Z,25.05
2023-02-28T02:01:09.933Z,25.40
2023-02-28T02:05:25.539Z,28.02
2023-02-28T02:09:37.911Z,24.75
2023-02-28T02:13:56.798Z,25.13
2023-02-28T02:18:31.985Z,29.25
2023-02-28T02:23:02.857Z,23.98
2023-02-28T02:27:24.015Z,29.00
2023-02-28T02:32:13.104Z,24.65
2023-02-28T02:36:44.033Z,24.98
2023-02-28T02:41:08.691Z,25.70
2023-02-28T02:45:24.616Z,33.80
2023-02-28T02:49:40.966Z,25.05
2023-02-28T02:54:00.355Z,29.27
2023-02-28T02:58:17.364Z,25.83
2023-02-28T03:02:35.467Z,29.35
2023-02-28T03:06:48.092Z,23.10
2023-02-28T03:11:03.866Z,27.23
2023-02-28T03:15:32.752Z,24.60
2023-02-28T03:19:54.053Z,33.25
2023-02-28T03:24:26.682Z,31.13
2023-02-28T03:29:14.416Z,29.80
2023-02-28T03:33:40.799Z,30.30
2023-02-28T03:38:05.784Z,27.40
2023-02-28T03:42:23.691Z,22.80
2023-02-28T03:46:43.749Z,28.13
2023-02-28T03:55:13.463Z,29.70
2023-02-28T04:00:01.041Z,26.67
2023-02-28T04:04:14.614Z,22.45
2023-02-28T04:08:27.030Z,30.38
2023-02-28T04:12:39.334Z,28.75
2023-02-28T04:16:55.013Z,29.38
2023-02-28T04:21:08.428Z,32.88
2023-02-28T04:25:20.766Z,26.50
2023-02-28T04:29:35.111Z,35.38
2023-02-28T04:33:47.461Z,20.70
2023-02-28T04:37:59.720Z,39.25
2023-02-28T04:42:13.452Z,39.30
2023-02-28T04:46:25.906Z,25.55
2023-02-28T04:50:38.370Z,25.58
2023-02-28T04:54:50.910Z,32.70
2023-02-28T04:59:03.834Z,26.27
2023-02-28T05:03:16.243Z,31.15
2023-02-28T05:07:28.664Z,24.58
2023-02-28T05:11:41.786Z,27.98
2023-02-28T05:15:54.408Z,29.75
2023-02-28T05:20:15.261Z,24.95
2023-02-28T05:24:27.967Z,25.05
2023-02-28T05:28:41.695Z,36.90
2023-02-28T05:32:54.313Z,23.15
2023-02-28T05:37:08.255Z,30.08
2023-02-28T05:41:21.859Z,28.42
2023-02-28T05:45:34.223Z,37.38
2023-02-28T05:49:46.706Z,23.70
2023-02-28T05:54:03.207Z,31.00
2023-02-28T05:58:15.511Z,33.90
2023-02-28T06:02:27.850Z,34.47
2023-02-28T06:06:40.593Z,32.08
2023-02-28T06:10:52.998Z,35.65
2023-02-28T06:15:05.696Z,30.58
2023-02-28T06:19:18.448Z,35.35
2023-02-28T06:23:30.732Z,34.05
2023-02-28T06:27:43.293Z,34.80
2023-02-28T06:31:55.938Z,24.25
2023-02-28T06:36:08.934Z,27.83
2023-02-28T06:40:21.341Z,41.08
2023-02-28T06:44:36.640Z,37.10
2023-02-28T06:48:49.014Z,34.50
2023-02-28T06:53:01.688Z,31.92
2023-02-28T06:57:13.979Z,45.03
2023-02-28T07:01:26.812Z,47.97
2023-02-28T07:05:41.103Z,43.25
2023-02-28T07:09:53.461Z,43.60
2023-02-28T07:14:05.730Z,43.45
2023-02-28T07:18:18.384Z,36.00
2023-02-28T07:22:30.786Z,32.38
2023-02-28T07:26:43.229Z,45.05
2023-02-28T07:30:55.706Z,40.33
2023-02-28T07:35:08.662Z,42.92
2023-02-28T07:39:22.371Z,38.33
2023-02-28T07:43:34.988Z,43.58
2023-02-28T07:47:47.733Z,50.90
2023-02-28T07:52:00.134Z,46.50
2023-02-28T07:56:12.438Z,48.35
2023-02-28T08:00:25.281Z,38.88
2023-02-28T08:04:37.530Z,44.72
2023-02-28T08:08:50.528Z,49.72
2023-02-28T08:13:02.938Z,49.70
2023-02-28T08:17:15.296Z,53.60
2023-02-28T08:21:27.930Z,38.67
2023-02-28T08:25:40.857Z,46.55
2023-02-28T08:29:53.278Z,48.15
2023-02-28T08:34:15.466Z,43.22
2023-02-28T08:38:27.854Z,49.30
2023-02-28T08:42:40.210Z,51.42
2023-02-28T08:46:52.532Z,43.28
2023-02-28T08:51:14.330Z,48.28
2023-02-28T08:55:26.754Z,46.22
2023-02-28T08:59:39.133Z,51.60
2023-02-28T09:03:52.771Z,38.83
2023-02-28T09:08:05.291Z,49.28
2023-02-28T09:12:17.725Z,43.08
2023-02-28T09:16:32.535Z,42.75
2023-02-28T09:20:45.690Z,52.67
2023-02-28T09:24:59.530Z,43.65
2023-02-28T09:29:12.529Z,47.95
2023-02-28T09:33:26.095Z,44.90
2023-02-28T09:37:38.700Z,44.55
2023-02-28T09:41:55.689Z,48.58
2023-02-28T09:46:20.824Z,54.67
2023-02-28T09:50:40.261Z,46.45
2023-02-28T09:54:52.621Z,43.50
2023-02-28T09:59:46.611Z,60.10
2023-02-28T10:04:07.151Z,41.92
2023-02-28T10:08:27.436Z,50.13
2023-02-28T10:12:44.218Z,47.75
2023-02-28T10:17:05.047Z,47.38
2023-02-28T10:21:30.082Z,42.33
2023-02-28T10:25:49.282Z,43.40
2023-02-28T10:30:03.481Z,58.42
2023-02-28T10:34:15.787Z,48.85
2023-02-28T10:38:34.574Z,57.35
2023-02-28T10:43:19.437Z,53.10
2023-02-28T10:47:33.430Z,45.53
2023-02-28T10:51:46.648Z,50.47
2023-02-28T10:56:07.887Z,46.63
2023-02-28T11:00:26.739Z,40.60
2023-02-28T11:04:41.390Z,47.80
2023-02-28T11:08:57.887Z,47.72
2023-02-28T11:13:20.216Z,60.60
2023-02-28T11:17:34.514Z,39.15
2023-02-28T11:22:12.189Z,44.63
2023-02-28T11:26:47.165Z,54.33
2023-02-28T11:31:15.704Z,50.28
2023-02-28T11:35:39.864Z,56.17
2023-02-28T11:39:52.194Z,49.42
2023-02-28T11:44:25.512Z,57.80
2023-02-28T11:49:02.926Z,52.28
2023-02-28T11:53:27.277Z,56.65
2023-02-28T11:58:01.294Z,50.42
2023-02-28T12:02:29.846Z,36.78
2023-02-28T12:06:49.151Z,40.83
2023-02-28T12:15:26.013Z,49.88
2023-02-28T12:19:49.685Z,44.60
2023-02-28T12:24:22.955Z,55.50
2023-02-28T12:28:41.867Z,60.42
2023-02-28T12:33:10.662Z,53.60
2023-02-28T12:37:42.488Z,68.07
2023-02-28T12:42:01.499Z,50.83
2023-02-28T12:46:23.953Z,54.28
2023-02-28T12:50:37.394Z,53.63
2023-02-28T12:55:01.720Z,58.40
2023-02-28T12:59:34.698Z,49.80
2023-02-28T13:04:05.485Z,57.72
2023-02-28T13:08:25.446Z,45.83
2023-02-28T13:12:38.028Z,53.30
2023-02-28T13:17:08.883Z,51.22
2023-02-28T13:21:28.048Z,43.88
2023-02-28T13:25:43.566Z,38.88
2023-02-28T13:29:55.996Z,38.47
2023-02-28T13:34:16.944Z,47.42
2023-02-28T13:38:42.670Z,52.15
2023-02-28T13:42:58.171Z,49.65
2023-02-28T13:47:13.715Z,52.10
2023-02-28T13:51:41.904Z,41.28
2023-02-28T13:56:19.104Z,48.67
2023-02-28T14:01:13.512Z,55.85
2023-02-28T14:05:35.114Z,49.22
2023-02-28T14:09:56.622Z,56.05
2023-02-28T14:14:11.162Z,51.63
2023-02-28T14:18:39.007Z,43.35
2023-02-28T14:22:58.468Z,49.40
2023-02-28T14:31:33.604Z,40.83
2023-02-28T14:36:04.400Z,50.33
2023-02-28T14:40:29.887Z,48.45
2023-02-28T14:44:42.249Z,43.78
2023-02-28T14:48:54.766Z,47.58
2023-02-28T14:53:16.938Z,43.22
2023-02-28T14:57:34.495Z,38.50
2023-02-28T15:01:47.267Z,42.08
2023-02-28T15:06:05.281Z,38.08
2023-02-28T15:10:24.685Z,36.38
2023-02-28T15:14:46.040Z,34.58
2023-02-28T15:19:04.804Z,37.45
2023-02-28T15:23:18.201Z,43.33
2023-02-28T15:27:34.041Z,25.92
2023-02-28T15:31:57.325Z,40.08
2023-02-28T15:36:22.221Z,36.80
2023-02-28T15:40:42.043Z,44.92
2023-02-28T15:44:54.880Z,38.63
2023-02-28T15:49:20.448Z,33.35
2023-02-28T15:53:49.146Z,34.40
2023-02-28T15:58:03.177Z,50.00
2023-02-28T16:02:22.392Z,36.67
2023-02-28T16:06:43.348Z,52.45
2023-02-28T16:10:55.712Z,42.35
2023-02-28T16:15:16.743Z,30.77
2023-02-28T16:19:29.141Z,40.70
2023-02-28T16:23:41.490Z,46.75
2023-02-28T16:27:55.328Z,35.97
2023-02-28T16:32:08.301Z,42.15
2023-02-28T16:36:26.496Z,43.75
2023-02-28T16:40:39.122Z,42.13
2023-02-28T16:44:51.952Z,43.90
2023-02-28T16:49:04.392Z,48.10
2023-02-28T16:53:16.717Z,50.90
2023-02-28T16:57:29.006Z,46.25
2023-02-28T17:01:41.467Z,49.13
2023-02-28T17:05:54.486Z,42.75
2023-02-28T17:10:22.348Z,43.00
2023-02-28T17:14:36.286Z,48.45
2023-02-28T17:18:48.824Z,50.05
2023-02-28T17:23:02.100Z,61.83
2023-02-28T17:27:14.596Z,69.80
2023-02-28T17:31:28.213Z,47.75
2023-02-28T17:35:40.755Z,68.45
2023-02-28T17:39:53.181Z,62.40
2023-02-28T17:44:05.751Z,72.63
2023-02-28T17:48:18.261Z,76.82
2023-02-28T17:52:30.958Z,84.78
2023-02-28T17:56:47.342Z,75.93
2023-02-28T18:01:00.662Z,61.30
2023-02-28T18:05:13.419Z,60.67
2023-02-28T18:09:25.871Z,52.88
2023-02-28T18:13:38.534Z,78.18
2023-02-28T18:17:51.408Z,62.78
2023-02-28T18:22:03.753Z,52.17
2023-02-28T18:26:18.072Z,55.67
2023-02-28T18:30:33.981Z,70.43
2023-02-28T18:34:46.348Z,63.10
2023-02-28T18:38:59.358Z,62.10
2023-02-28T18:43:11.872Z,55.17
2023-02-28T18:47:24.370Z,64.63
2023-02-28T18:51:37.655Z,66.82
2023-02-28T18:55:50.286Z,67.68
2023-02-28T19:00:02.748Z,70.30
2023-02-28T19:04:15.728Z,73.95
2023-02-28T19:08:28.370Z,70.30
2023-02-28T19:12:43.213Z,63.47
2023-02-28T19:16:55.607Z,66.72
2023-02-28T19:21:10.478Z,53.35
2023-02-28T19:25:24.293Z,67.88
2023-02-28T19:29:36.724Z,65.97
2023-02-28T19:33:49.096Z,71.57
2023-02-28T19:38:01.761Z,90.88
2023-02-28T19:42:16.477Z,73.22
2023-02-28T19:46:29.609Z,87.07
2023-02-28T19:50:46.035Z,75.55
2023-02-28T19:54:59.901Z,82.63
2023-02-28T19:59:21.814Z,66.22
2023-02-28T20:03:44.100Z,65.20
2023-02-28T20:07:56.531Z,69.97
2023-02-28T20:12:17.934Z,63.10
2023-02-28T20:16:35.800Z,69.18
2023-02-28T20:20:48.356Z,70.40
2023-02-28T20:25:00.739Z,59.35
2023-02-28T20:29:14.083Z,65.72
2023-02-28T20:33:28.947Z,50.78
2023-02-28T20:37:43.439Z,56.85
2023-02-28T20:41:55.840Z,56.58
2023-02-28T20:46:08.780Z,62.70
2023-02-28T20:50:21.312Z,57.58
2023-02-28T20:54:36.380Z,62.17
2023-02-28T20:58:52.047Z,66.45
2023-02-28T21:03:04.557Z,59.80
2023-02-28T21:07:18.928Z,72.18
2023-02-28T21:11:34.529Z,75.47
2023-02-28T21:15:48.214Z,69.07
2023-02-28T21:20:03.930Z,74.45
2023-02-28T21:24:18.496Z,69.10
2023-02-28T21:28:33.323Z,87.25
2023-02-28T21:32:45.719Z,70.97
2023-02-28T21:36:58.103Z,59.05
2023-02-28T21:41:14.973Z,75.72
2023-02-28T21:45:29.504Z,62.42
2023-02-28T21:49:41.846Z,81.45
2023-02-28T21:53:54.824Z,71.05
2023-02-28T21:58:07.395Z,83.38
2023-02-28T22:02:19.940Z,76.13
2023-02-28T22:06:39.644Z,79.13
2023-02-28T22:10:52.065Z,78.32
2023-02-28T22:15:04.798Z,78.45
2023-02-28T22:19:19.191Z,68.05
2023-02-28T22:23:32.993Z,54.60
2023-02-28T22:27:45.584Z,32.67
2023-02-28T22:31:57.915Z,36.80
2023-02-28T22:36:11.322Z,39.92
2023-02-28T22:40:23.679Z,48.10
2023-02-28T22:44:36.889Z,31.88
2023-02-28T22:48:50.317Z,40.45
2023-02-28T22:53:02.835Z,33.42
2023-02-28T22:57:15.191Z,39.13
2023-02-28T23:01:32.379Z,44.45
2023-02-28T23:05:44.829Z,36.63
2023-02-28T23:09:57.462Z,37.72
2023-02-28T23:14:13.017Z,39.45
2023-02-28T23:18:25.453Z,35.17
2023-02-28T23:22:37.957Z,36.33
2023-02-28T23:26:53.127Z,35.42
2023-02-28T23:31:05.616Z,32.83
2023-02-28T23:35:19.385Z,37.85
2023-02-28T23:39:32.075Z,27.15
2023-02-28T23:43:44.973Z,32.42
2023-02-28T23:47:58.883Z,34.20
2023-02-28T23:52:11.798Z,30.17
2023-02-28T23:56:25.926Z,32.63
